Time;durP1;ratioP1;P1;durP2;ratioP2;P2;SDS_P1;SDS_P2;PMS_P1;PMS_P2;Temp;Humidity;BMP_temperature;BMP_pressure;BME280_temperature;BME280_humidity;BME280_pressure;Samples;Min_cycle;Max_cycle;Signal;HPM_P1;HPM_P2
2021/03/26 00:01:46;;;;;;;;;;;10.30;88.10;;;;;;4333643;33;33812;-81
2021/03/26 00:04:18;;;;;;;;;;;10.30;88.10;;;;;;4334032;33;37461;-81
2021/03/26 00:06:51;;;;;;;;;;;10.30;88.20;;;;;;4334835;33;20019;-82
2021/03/26 00:09:29;;;;;;;;;;;10.30;88.20;;;;;;4334127;33;41522;-81
2021/03/26 00:12:08;;;;;;;;;;;10.30;88.30;;;;;;4333437;33;40669;-81
2021/03/26 00:14:40;;;;;;;;;;;10.30;88.30;;;;;;4347172;33;43656;-82
2021/03/26 00:17:17;;;;;;;;;;;10.30;88.40;;;;;;4334169;33;44345;-81
2021/03/26 00:19:53;;;;;;;;;;;10.30;88.50;;;;;;4334701;33;24717;-81
2021/03/26 00:22:34;;;;;;;;;;;10.20;88.60;;;;;;4348551;33;20005;-82
2021/03/26 00:25:04;;;;;;;;;;;10.10;88.70;;;;;;4347180;33;31891;-81
2021/03/26 00:27:41;;;;;;;;;;;10.00;88.90;;;;;;4322898;33;20015;-82
2021/03/26 00:30:20;;;;;;;;;;;10.00;89.00;;;;;;4348680;33;20021;-81
2021/03/26 00:33:04;;;;;;;;;;;10.00;89.10;;;;;;4322747;33;20022;-82
2021/03/26 00:35:37;;;;;;;;;;;10.00;89.10;;;;;;4347330;33;40701;-81
2021/03/26 00:38:15;;;;;;;;;;;10.00;89.00;;;;;;4334346;33;29839;-82
2021/03/26 00:40:47;;;;;;;;;;;10.00;89.00;;;;;;4347001;33;35969;-82
2021/03/26 00:43:21;;;;;;;;;;;10.00;89.00;;;;;;4321267;33;43916;-81
2021/03/26 00:45:54;;;;;;;;;;;10.00;89.00;;;;;;4347537;33;20057;-81
2021/03/26 00:48:26;;;;;;;;;;;10.10;89.10;;;;;;4347447;33;20017;-81
2021/03/26 00:50:58;;;;;;;;;;;10.10;89.10;;;;;;4332744;33;44644;-82
2021/03/26 00:53:37;;;;;;;;;;;10.10;88.90;;;;;;4334612;33;20068;-81
2021/03/26 00:56:10;;;;;;;;;;;10.10;88.80;;;;;;4347432;33;20399;-81
2021/03/26 00:58:45;;;;;;;;;;;10.10;88.90;;;;;;4333077;33;42955;-81
2021/03/26 01:01:11;;;;;;;;;;;10.10;88.80;;;;;;4332377;33;42930;-81
2021/03/26 01:03:49;;;;;;;;;;;10.10;88.80;;;;;;4345743;33;41012;-81
2021/03/26 01:06:22;;;;;;;;;;;10.10;88.80;;;;;;4333967;33;20072;-81
2021/03/26 01:09:00;;;;;;;;;;;10.10;88.80;;;;;;4320443;33;42239;-82
2021/03/26 01:11:36;;;;;;;;;;;10.10;88.80;;;;;;4320974;33;24911;-81
2021/03/26 01:14:27;;;;;;;;;;;10.10;88.90;;;;;;4323593;33;20005;-81
2021/03/26 01:17:02;;;;;;;;;;;10.00;88.80;;;;;;4320100;33;40009;-81
2021/03/26 01:19:41;;;;;;;;;;;10.10;88.80;;;;;;4333448;33;20080;-81
2021/03/26 01:22:15;;;;;;;;;;;10.10;88.70;;;;;;4345662;33;43728;-81
2021/03/26 01:24:53;;;;;;;;;;;10.00;88.70;;;;;;4333217;33;20044;-81
2021/03/26 01:27:28;;;;;;;;;;;10.00;88.70;;;;;;4345938;33;25601;-81
2021/03/26 01:30:07;;;;;;;;;;;10.00;88.80;;;;;;4333560;33;25401;-81
2021/03/26 01:32:48;;;;;;;;;;;10.10;88.90;;;;;;4332412;33;42415;-81
2021/03/26 01:35:23;;;;;;;;;;;10.10;88.80;;;;;;4332292;33;36007;-81
2021/03/26 01:37:55;;;;;;;;;;;10.00;88.80;;;;;;4332213;33;43515;-81
2021/03/26 01:40:24;;;;;;;;;;;10.00;88.80;;;;;;4345671;33;41425;-81
2021/03/26 01:43:10;;;;;;;;;;;10.00;88.90;;;;;;4332561;33;45222;-81
2021/03/26 01:45:46;;;;;;;;;;;9.90;88.80;;;;;;4333458;33;20437;-81
2021/03/26 01:48:21;;;;;;;;;;;10.00;88.90;;;;;;4321192;33;20391;-81
2021/03/26 01:50:54;;;;;;;;;;;9.90;88.80;;;;;;4333225;33;20068;-81
2021/03/26 01:53:36;;;;;;;;;;;10.00;88.90;;;;;;4346506;33;20033;-81
2021/03/26 01:56:09;;;;;;;;;;;9.90;88.80;;;;;;4331991;33;39883;-81
2021/03/26 01:58:41;;;;;;;;;;;9.90;88.90;;;;;;4333133;33;19997;-81
2021/03/26 02:01:16;;;;;;;;;;;9.90;89.00;;;;;;4345306;33;33843;-81
2021/03/26 02:03:55;;;;;;;;;;;9.90;89.00;;;;;;4332339;33;22272;-81
2021/03/26 02:06:48;;;;;;;;;;;9.90;89.10;;;;;;4321305;33;20348;-81
2021/03/26 02:09:21;;;;;;;;;;;9.80;89.20;;;;;;4330358;33;38628;-81
2021/03/26 02:11:55;;;;;;;;;;;9.80;89.20;;;;;;4320551;33;20013;-81
2021/03/26 02:14:29;;;;;;;;;;;9.80;89.30;;;;;;4320479;33;20004;-81
2021/03/26 02:17:04;;;;;;;;;;;9.70;89.30;;;;;;4333384;33;20088;-81
2021/03/26 02:19:50;;;;;;;;;;;9.70;89.40;;;;;;4333323;33;20383;-81
2021/03/26 02:22:27;;;;;;;;;;;9.70;89.60;;;;;;4332460;33;38278;-81
2021/03/26 02:25:07;;;;;;;;;;;9.70;89.80;;;;;;4345335;33;44315;-81
2021/03/26 02:27:37;;;;;;;;;;;9.60;89.70;;;;;;4346299;33;20017;-81
2021/03/26 02:30:20;;;;;;;;;;;9.60;89.80;;;;;;4332974;33;20012;-82
2021/03/26 02:32:54;;;;;;;;;;;9.60;89.80;;;;;;4332967;33;20373;-81
2021/03/26 02:35:26;;;;;;;;;;;9.60;90.00;;;;;;4346346;33;20015;-81
2021/03/26 02:38:10;;;;;;;;;;;9.50;90.00;;;;;;4320749;33;20027;-82
2021/03/26 02:40:52;;;;;;;;;;;9.50;90.00;;;;;;4320527;33;20005;-81
2021/03/26 02:43:30;;;;;;;;;;;9.50;90.00;;;;;;4332675;33;19994;-81
2021/03/26 02:46:20;;;;;;;;;;;9.50;90.00;;;;;;4346398;33;20080;-81
2021/03/26 02:49:01;;;;;;;;;;;9.50;90.10;;;;;;4332822;33;20073;-81
2021/03/26 02:51:39;;;;;;;;;;;9.50;90.10;;;;;;4333318;33;20438;-81
2021/03/26 02:54:49;;;;;;;;;;;9.50;90.10;;;;;;4333694;33;20398;-81
2021/03/26 02:57:45;;;;;;;;;;;9.40;90.00;;;;;;4322563;33;20049;-81
2021/03/26 03:00:29;;;;;;;;;;;9.50;90.00;;;;;;4333104;33;20015;-81
2021/03/26 03:03:14;;;;;;;;;;;9.50;90.00;;;;;;4323079;33;20080;-81
2021/03/26 03:05:51;;;;;;;;;;;9.40;90.00;;;;;;4335615;33;20076;-81
2021/03/26 03:08:31;;;;;;;;;;;9.40;90.00;;;;;;4335724;33;20016;-82
2021/03/26 03:11:04;;;;;;;;;;;9.40;90.10;;;;;;4323278;33;20065;-81
2021/03/26 03:13:47;;;;;;;;;;;9.40;90.10;;;;;;4336077;33;20009;-81
2021/03/26 03:16:29;;;;;;;;;;;9.40;90.10;;;;;;4336185;33;20413;-81
2021/03/26 03:19:14;;;;;;;;;;;9.30;90.10;;;;;;4334703;33;21252;-81
2021/03/26 03:22:10;;;;;;;;;;;9.30;90.20;;;;;;4335360;33;20022;-81
2021/03/26 03:24:55;;;;;;;;;;;9.30;90.20;;;;;;4316924;33;20450;-81
2021/03/26 03:27:31;;;;;;;;;;;9.30;90.20;;;;;;4322092;33;21458;-81
2021/03/26 03:30:04;;;;;;;;;;;9.20;90.20;;;;;;4334259;33;43365;-81
2021/03/26 03:32:39;;;;;;;;;;;9.30;90.20;;;;;;4333702;33;40125;-81
2021/03/26 03:35:27;;;;;;;;;;;9.30;90.30;;;;;;4322741;33;19998;-81
2021/03/26 03:38:17;;;;;;;;;;;9.20;90.20;;;;;;4335089;33;20350;-81
2021/03/26 03:40:56;;;;;;;;;;;9.20;90.30;;;;;;4334765;33;20013;-81
2021/03/26 03:43:33;;;;;;;;;;;9.20;90.30;;;;;;4333629;33;44977;-82
2021/03/26 03:46:22;;;;;;;;;;;9.20;90.30;;;;;;4335270;33;20324;-81
2021/03/26 03:49:10;;;;;;;;;;;9.10;90.20;;;;;;4348303;33;20120;-81
2021/03/26 03:52:00;;;;;;;;;;;9.10;90.20;;;;;;4348498;33;20013;-81
2021/03/26 03:54:38;;;;;;;;;;;9.20;90.20;;;;;;4348447;33;20065;-82
2021/03/26 03:57:20;;;;;;;;;;;9.20;90.20;;;;;;4347435;33;44892;-82
2021/03/26 04:00:07;;;;;;;;;;;9.20;90.20;;;;;;4335145;33;20021;-81
2021/03/26 04:02:57;;;;;;;;;;;9.20;90.10;;;;;;4322164;33;20374;-81
2021/03/26 04:05:29;;;;;;;;;;;9.20;90.10;;;;;;4327407;33;44315;-81
2021/03/26 04:08:05;;;;;;;;;;;9.20;90.10;;;;;;4333439;33;20002;-81
2021/03/26 04:10:37;;;;;;;;;;;9.20;90.10;;;;;;4348618;33;20017;-81
2021/03/26 04:13:18;;;;;;;;;;;9.20;90.10;;;;;;4336260;33;20102;-81
2021/03/26 04:16:03;;;;;;;;;;;9.10;90.10;;;;;;4335959;33;20446;-82
2021/03/26 04:18:56;;;;;;;;;;;9.10;90.20;;;;;;4323077;33;20031;-81
2021/03/26 04:21:36;;;;;;;;;;;9.10;90.20;;;;;;4330943;33;20048;-81
2021/03/26 04:24:19;;;;;;;;;;;9.00;90.30;;;;;;4348981;33;20006;-81
2021/03/26 04:27:10;;;;;;;;;;;9.00;90.30;;;;;;4335892;33;20045;-82
2021/03/26 04:29:50;;;;;;;;;;;8.90;90.30;;;;;;4323706;33;20391;-81
2021/03/26 04:32:29;;;;;;;;;;;8.90;90.40;;;;;;4324050;33;20027;-81
2021/03/26 04:35:09;;;;;;;;;;;8.90;90.50;;;;;;4336342;33;20061;-82
2021/03/26 04:38:19;;;;;;;;;;;8.90;90.50;;;;;;4336978;33;20009;-81
2021/03/26 04:41:04;;;;;;;;;;;8.80;90.50;;;;;;4336017;33;20151;-81
2021/03/26 04:43:47;;;;;;;;;;;8.80;90.50;;;;;;4336186;33;20017;-81
2021/03/26 04:46:27;;;;;;;;;;;8.80;90.60;;;;;;4349176;33;20033;-81
2021/03/26 04:49:47;;;;;;;;;;;8.90;90.60;;;;;;4334883;33;20434;-82
2021/03/26 04:52:57;;;;;;;;;;;8.90;90.60;;;;;;4322422;33;20084;-81
2021/03/26 04:55:39;;;;;;;;;;;8.80;90.60;;;;;;4328908;33;20023;-81
2021/03/26 04:58:29;;;;;;;;;;;8.80;90.60;;;;;;4333831;33;20040;-81
2021/03/26 05:01:15;;;;;;;;;;;8.90;90.60;;;;;;4333609;33;20023;-81
2021/03/26 05:04:05;;;;;;;;;;;8.80;90.50;;;;;;4345714;33;45289;-81
2021/03/26 05:06:49;;;;;;;;;;;8.90;90.60;;;;;;4321437;33;20009;-81
2021/03/26 05:09:23;;;;;;;;;;;8.80;90.50;;;;;;4332800;33;33481;-81
2021/03/26 05:12:06;;;;;;;;;;;8.90;90.50;;;;;;4333815;33;20049;-81
2021/03/26 05:14:41;;;;;;;;;;;8.90;90.60;;;;;;4333406;33;20013;-81
2021/03/26 05:17:28;;;;;;;;;;;8.80;90.50;;;;;;4321757;33;20446;-81
2021/03/26 05:20:06;;;;;;;;;;;8.90;90.60;;;;;;4333882;33;20026;-81
2021/03/26 05:22:45;;;;;;;;;;;8.80;90.50;;;;;;4321592;33;20007;-81
2021/03/26 05:25:38;;;;;;;;;;;8.90;90.50;;;;;;4347044;33;20401;-81
2021/03/26 05:28:17;;;;;;;;;;;8.80;90.50;;;;;;4327715;33;20061;-81
2021/03/26 05:30:49;;;;;;;;;;;8.80;90.50;;;;;;4346470;33;20415;-81
2021/03/26 05:33:28;;;;;;;;;;;8.80;90.60;;;;;;4321615;33;19998;-81
2021/03/26 05:36:10;;;;;;;;;;;8.80;90.60;;;;;;4321656;33;20075;-81
2021/03/26 05:38:49;;;;;;;;;;;8.80;90.70;;;;;;4346958;33;20040;-82
2021/03/26 05:41:46;;;;;;;;;;;8.80;90.70;;;;;;4346802;33;20019;-81
2021/03/26 05:44:34;;;;;;;;;;;8.70;90.70;;;;;;4333670;33;20060;-81
2021/03/26 05:47:06;;;;;;;;;;;8.70;90.70;;;;;;4345533;33;44336;-81
2021/03/26 05:49:42;;;;;;;;;;;8.70;90.70;;;;;;4346493;33;20037;-81
2021/03/26 05:52:14;;;;;;;;;;;8.70;90.80;;;;;;4347032;33;20043;-81
2021/03/26 05:54:55;;;;;;;;;;;8.70;90.80;;;;;;4346196;33;20381;-81
2021/03/26 05:57:41;;;;;;;;;;;8.70;90.80;;;;;;4346587;33;20057;-81
2021/03/26 06:00:22;;;;;;;;;;;8.70;90.80;;;;;;4346409;33;20023;-81
2021/03/26 06:03:17;;;;;;;;;;;8.70;90.80;;;;;;4320587;33;20013;-81
2021/03/26 06:06:06;;;;;;;;;;;8.70;90.80;;;;;;4333419;33;20036;-81
2021/03/26 06:08:44;;;;;;;;;;;8.70;90.80;;;;;;4320424;33;19997;-80
2021/03/26 06:11:26;;;;;;;;;;;8.70;90.90;;;;;;4333705;33;19997;-81
2021/03/26 06:14:20;;;;;;;;;;;8.70;90.90;;;;;;4321428;33;20391;-81
2021/03/26 06:16:58;;;;;;;;;;;8.70;91.00;;;;;;4332812;33;20031;-81
2021/03/26 06:19:46;;;;;;;;;;;8.70;91.00;;;;;;4321062;33;19997;-81
2021/03/26 06:22:35;;;;;;;;;;;8.60;91.00;;;;;;4346562;33;20025;-81
2021/03/26 06:25:28;;;;;;;;;;;8.60;91.00;;;;;;4333435;33;20009;-81
2021/03/26 06:28:26;;;;;;;;;;;8.60;91.10;;;;;;4321057;33;20010;-81
2021/03/26 06:31:11;;;;;;;;;;;8.60;91.20;;;;;;4322112;33;20114;-81
2021/03/26 06:34:39;;;;;;;;;;;8.60;91.10;;;;;;4338976;33;20013;-81
2021/03/26 06:37:27;;;;;;;;;;;8.60;91.10;;;;;;4335691;33;20005;-81
2021/03/26 06:39:57;;;;;;;;;;;8.70;91.10;;;;;;4348857;33;20013;-81
2021/03/26 06:42:43;;;;;;;;;;;8.70;91.10;;;;;;4336104;33;20450;-81
2021/03/26 06:45:23;;;;;;;;;;;8.70;91.20;;;;;;4349212;33;20456;-81
2021/03/26 06:48:16;;;;;;;;;;;8.70;91.10;;;;;;4335635;33;20009;-81
2021/03/26 06:51:09;;;;;;;;;;;8.80;91.10;;;;;;4315268;33;20040;-81
2021/03/26 06:53:46;;;;;;;;;;;8.80;91.10;;;;;;4330134;33;20009;-81
2021/03/26 06:56:36;;;;;;;;;;;8.80;91.10;;;;;;4349129;33;20065;-81
2021/03/26 06:59:29;;;;;;;;;;;8.80;91.20;;;;;;4335958;33;20016;-82
2021/03/26 07:01:59;;;;;;;;;;;8.80;91.20;;;;;;4348798;33;20047;-81
2021/03/26 07:04:56;;;;;;;;;;;8.90;91.30;;;;;;4323765;33;20005;-81
2021/03/26 07:07:29;;;;;;;;;;;8.90;91.30;;;;;;4347875;33;33183;-81
2021/03/26 07:10:08;;;;;;;;;;;8.90;91.30;;;;;;4322695;33;20014;-81
2021/03/26 07:12:56;;;;;;;;;;;8.90;91.50;;;;;;4348810;33;20017;-81
2021/03/26 07:15:31;;;;;;;;;;;8.90;91.40;;;;;;4348848;33;20009;-81
2021/03/26 07:18:16;;;;;;;;;;;8.90;91.60;;;;;;4335574;33;20065;-81
2021/03/26 07:21:08;;;;;;;;;;;8.90;91.70;;;;;;4335308;33;20051;-81
2021/03/26 07:23:37;;;;;;;;;;;8.90;91.60;;;;;;4347710;33;32171;-81
2021/03/26 07:26:18;;;;;;;;;;;8.90;91.70;;;;;;4348558;33;20056;-81
2021/03/26 07:29:00;;;;;;;;;;;8.90;91.50;;;;;;4348691;33;20028;-81
2021/03/26 07:31:36;;;;;;;;;;;8.90;91.70;;;;;;4321857;33;44226;-81
2021/03/26 07:34:27;;;;;;;;;;;8.90;91.60;;;;;;4348582;33;20016;-81
2021/03/26 07:37:12;;;;;;;;;;;9.00;91.50;;;;;;4347936;33;20009;-81
2021/03/26 07:40:02;;;;;;;;;;;9.00;91.60;;;;;;4348546;33;20045;-81
2021/03/26 07:43:04;;;;;;;;;;;9.10;91.70;;;;;;4313672;33;20011;-81
2021/03/26 07:45:40;;;;;;;;;;;9.10;91.50;;;;;;4348040;33;20370;-81
2021/03/26 07:48:48;;;;;;;;;;;9.10;91.60;;;;;;4335229;33;20069;-81
2021/03/26 07:51:36;;;;;;;;;;;9.20;91.60;;;;;;4302067;33;20002;-79
2021/03/26 07:54:22;;;;;;;;;;;9.20;91.50;;;;;;4290735;33;20360;-81
2021/03/26 07:57:13;;;;;;;;;;;9.20;91.40;;;;;;4328138;33;20009;-81
2021/03/26 08:00:01;;;;;;;;;;;9.20;91.40;;;;;;4334734;33;20493;-81
2021/03/26 08:02:51;;;;;;;;;;;9.30;91.30;;;;;;4335071;33;20080;-81
2021/03/26 08:05:28;;;;;;;;;;;9.40;91.30;;;;;;4334377;33;20097;-81
2021/03/26 08:08:22;;;;;;;;;;;9.40;91.30;;;;;;4348609;33;20097;-81
2021/03/26 08:10:57;;;;;;;;;;;9.40;91.30;;;;;;4348359;33;20013;-81
2021/03/26 08:13:40;;;;;;;;;;;9.40;91.10;;;;;;4348640;33;20005;-81
2021/03/26 08:16:29;;;;;;;;;;;9.50;91.10;;;;;;4348381;33;20053;-81
2021/03/26 08:19:11;;;;;;;;;;;9.50;91.00;;;;;;4322644;33;20001;-81
2021/03/26 08:21:48;;;;;;;;;;;9.50;91.00;;;;;;4348050;33;20004;-81
2021/03/26 08:24:31;;;;;;;;;;;9.60;91.10;;;;;;4333907;33;44182;-81
2021/03/26 08:27:06;;;;;;;;;;;9.60;91.00;;;;;;4333996;33;43640;-81
2021/03/26 08:29:35;;;;;;;;;;;9.70;91.00;;;;;;4322576;33;19997;-81
2021/03/26 08:32:06;;;;;;;;;;;9.70;91.00;;;;;;4334843;33;20069;-81
2021/03/26 08:34:58;;;;;;;;;;;9.70;91.00;;;;;;4348101;33;20001;-81
2021/03/26 08:37:48;;;;;;;;;;;9.80;90.90;;;;;;4334191;33;20043;-81
2021/03/26 08:40:40;;;;;;;;;;;9.80;90.70;;;;;;4334542;33;20440;-81
2021/03/26 08:43:16;;;;;;;;;;;9.90;90.60;;;;;;4340054;33;20005;-81
2021/03/26 08:45:56;;;;;;;;;;;9.90;90.60;;;;;;4334497;33;20462;-81
2021/03/26 08:48:38;;;;;;;;;;;9.90;90.50;;;;;;4334122;33;20009;-81
2021/03/26 08:51:23;;;;;;;;;;;9.90;90.50;;;;;;4333959;33;20057;-81
2021/03/26 08:54:09;;;;;;;;;;;9.90;90.50;;;;;;4346927;33;20025;-81
2021/03/26 08:56:42;;;;;;;;;;;10.00;90.50;;;;;;4347186;33;20065;-81
2021/03/26 08:59:18;;;;;;;;;;;10.10;90.50;;;;;;4345912;33;43787;-81
2021/03/26 09:01:59;;;;;;;;;;;10.10;90.50;;;;;;4346751;33;20136;-81
2021/03/26 09:04:39;;;;;;;;;;;10.10;90.40;;;;;;4333639;33;20343;-81
2021/03/26 09:07:19;;;;;;;;;;;10.20;90.20;;;;;;4333697;33;20032;-81
2021/03/26 09:10:10;;;;;;;;;;;10.30;90.20;;;;;;4321415;33;20045;-82
2021/03/26 09:12:56;;;;;;;;;;;10.30;90.10;;;;;;4347099;33;20013;-82
2021/03/26 09:15:50;;;;;;;;;;;10.30;90.00;;;;;;4333480;33;20019;-81
2021/03/26 09:18:44;;;;;;;;;;;10.30;90.00;;;;;;4320909;33;20403;-81
2021/03/26 09:21:37;;;;;;;;;;;10.40;89.70;;;;;;4344924;33;20005;-81
2021/03/26 09:24:22;;;;;;;;;;;10.40;89.50;;;;;;4333438;33;20001;-81
2021/03/26 09:27:11;;;;;;;;;;;10.40;89.30;;;;;;4346948;33;20015;-81
2021/03/26 09:29:56;;;;;;;;;;;10.50;89.30;;;;;;4346719;33;20008;-81
2021/03/26 09:32:36;;;;;;;;;;;10.50;89.00;;;;;;4333053;33;20407;-82
2021/03/26 09:35:23;;;;;;;;;;;10.60;88.50;;;;;;4333472;33;20057;-81
2021/03/26 09:38:08;;;;;;;;;;;10.60;89.10;;;;;;4334121;33;20036;-80
2021/03/26 09:40:50;;;;;;;;;;;10.60;88.90;;;;;;4345407;33;43514;-81
2021/03/26 09:43:28;;;;;;;;;;;10.70;88.60;;;;;;4333316;33;20057;-81
2021/03/26 09:46:14;;;;;;;;;;;10.80;87.90;;;;;;4346762;33;20021;-81
2021/03/26 09:48:57;;;;;;;;;;;10.80;88.30;;;;;;4346702;33;20036;-81
2021/03/26 09:51:42;;;;;;;;;;;10.80;87.60;;;;;;4333130;33;20005;-81
2021/03/26 09:54:20;;;;;;;;;;;10.90;87.30;;;;;;4320390;33;23721;-81
2021/03/26 09:57:19;;;;;;;;;;;11.00;87.30;;;;;;4333481;33;20017;-81
2021/03/26 10:00:10;;;;;;;;;;;11.00;86.80;;;;;;4320984;33;20045;-81
2021/03/26 10:02:46;;;;;;;;;;;11.10;85.60;;;;;;4319597;33;43549;-81
2021/03/26 10:05:32;;;;;;;;;;;11.20;86.50;;;;;;4345128;33;41553;-81
2021/03/26 10:08:30;;;;;;;;;;;11.30;86.50;;;;;;4349382;33;20017;-81
2021/03/26 10:11:05;;;;;;;;;;;11.30;85.40;;;;;;4348294;33;20020;-81
2021/03/26 10:13:53;;;;;;;;;;;11.30;85.60;;;;;;4350062;33;20068;-81
2021/03/26 10:16:49;;;;;;;;;;;11.40;86.00;;;;;;4348399;33;37279;-81
2021/03/26 10:19:37;;;;;;;;;;;11.40;85.50;;;;;;4314802;33;20365;-81
2021/03/26 10:22:25;;;;;;;;;;;11.40;84.80;;;;;;4323024;33;36887;-81
2021/03/26 10:25:26;;;;;;;;;;;11.40;85.00;;;;;;4335223;33;43224;-81
2021/03/26 10:28:08;;;;;;;;;;;11.40;84.70;;;;;;4310935;33;26018;-80
2021/03/26 10:30:46;;;;;;;;;;;11.40;84.50;;;;;;4349690;33;20013;-81
2021/03/26 10:33:23;;;;;;;;;;;11.30;83.30;;;;;;4336492;33;20027;-80
2021/03/26 10:36:19;;;;;;;;;;;11.30;83.30;;;;;;4335420;33;38030;-81
2021/03/26 10:39:04;;;;;;;;;;;11.30;82.70;;;;;;4336076;33;20133;-81
2021/03/26 10:41:53;;;;;;;;;;;11.30;83.20;;;;;;4334416;33;44655;-81
2021/03/26 10:44:23;;;;;;;;;;;11.20;82.20;;;;;;4334707;33;37242;-81
2021/03/26 10:46:59;;;;;;;;;;;11.20;82.70;;;;;;4347985;33;20211;-81
2021/03/26 10:49:41;;;;;;;;;;;11.30;82.70;;;;;;4349106;33;20361;-81
2021/03/26 10:52:18;;;;;;;;;;;11.20;82.40;;;;;;4335599;33;19997;-81
2021/03/26 10:54:59;;;;;;;;;;;11.20;82.40;;;;;;4335405;33;20009;-81
2021/03/26 10:57:50;;;;;;;;;;;11.20;82.60;;;;;;4349018;33;20016;-81
2021/03/26 11:00:58;;;;;;;;;;;11.30;81.80;;;;;;4335327;33;20076;-81
2021/03/26 11:03:37;;;;;;;;;;;11.30;82.30;;;;;;4313350;33;20057;-81
2021/03/26 11:06:28;;;;;;;;;;;11.40;81.40;;;;;;4348684;33;20013;-81
2021/03/26 11:09:05;;;;;;;;;;;11.50;81.20;;;;;;4348799;33;20015;-81
2021/03/26 11:11:53;;;;;;;;;;;11.50;82.00;;;;;;4335615;33;20019;-81
2021/03/26 11:14:41;;;;;;;;;;;11.60;81.50;;;;;;4334882;33;20076;-81
2021/03/26 11:17:08;;;;;;;;;;;11.70;81.10;;;;;;4347448;33;32622;-81
2021/03/26 11:19:49;;;;;;;;;;;11.70;81.70;;;;;;4348769;33;20076;-81
2021/03/26 11:22:26;;;;;;;;;;;11.80;81.30;;;;;;4335069;33;20061;-81
2021/03/26 11:25:19;;;;;;;;;;;11.80;81.20;;;;;;4348685;33;20001;-81
2021/03/26 11:27:54;;;;;;;;;;;11.80;80.50;;;;;;4347474;33;44686;-81
2021/03/26 11:30:33;;;;;;;;;;;11.80;80.10;;;;;;4321931;33;44151;-81
2021/03/26 11:33:15;;;;;;;;;;;11.80;79.40;;;;;;4322988;33;20433;-81
2021/03/26 11:35:50;;;;;;;;;;;11.80;80.30;;;;;;4322957;33;20011;-81
2021/03/26 11:38:27;;;;;;;;;;;11.80;80.60;;;;;;4335014;33;20024;-81
2021/03/26 11:41:12;;;;;;;;;;;11.80;80.20;;;;;;4334932;33;20005;-80
2021/03/26 11:43:48;;;;;;;;;;;11.80;79.50;;;;;;4348591;33;20009;-81
2021/03/26 11:46:23;;;;;;;;;;;11.80;80.30;;;;;;4335142;33;20433;-81
2021/03/26 11:49:01;;;;;;;;;;;11.80;78.90;;;;;;4333567;33;43774;-81
2021/03/26 11:51:36;;;;;;;;;;;11.80;80.00;;;;;;4334935;33;20025;-81
2021/03/26 11:54:41;;;;;;;;;;;11.80;79.60;;;;;;4334706;33;20442;-81
2021/03/26 11:57:20;;;;;;;;;;;11.90;79.50;;;;;;4348223;33;20065;-81
2021/03/26 12:00:10;;;;;;;;;;;12.00;79.10;;;;;;4347905;33;20023;-81
2021/03/26 12:02:55;;;;;;;;;;;12.10;78.90;;;;;;4322316;33;20009;-81
2021/03/26 12:05:31;;;;;;;;;;;12.20;79.60;;;;;;4333506;33;43653;-81
2021/03/26 12:08:27;;;;;;;;;;;12.20;79.20;;;;;;4323008;33;27425;-81
2021/03/26 12:11:18;;;;;;;;;;;12.30;79.60;;;;;;4334515;33;20024;-81
2021/03/26 12:14:02;;;;;;;;;;;12.40;79.30;;;;;;4347727;33;20008;-81
2021/03/26 12:16:40;;;;;;;;;;;12.40;79.30;;;;;;4334404;33;20373;-81
2021/03/26 12:19:22;;;;;;;;;;;12.40;78.70;;;;;;4334385;33;20016;-81
2021/03/26 12:22:04;;;;;;;;;;;12.40;78.60;;;;;;4334407;33;20005;-81
2021/03/26 12:24:45;;;;;;;;;;;12.40;79.00;;;;;;4347401;33;20001;-80
2021/03/26 12:27:32;;;;;;;;;;;12.40;78.80;;;;;;4322203;33;20028;-80
2021/03/26 12:30:24;;;;;;;;;;;12.40;78.70;;;;;;4334125;33;20056;-81
2021/03/26 12:33:06;;;;;;;;;;;12.40;78.20;;;;;;4347708;33;20005;-81
2021/03/26 12:35:44;;;;;;;;;;;12.30;78.60;;;;;;4334070;33;20695;-81
2021/03/26 12:38:34;;;;;;;;;;;12.30;78.40;;;;;;4347442;33;20099;-81
2021/03/26 12:41:18;;;;;;;;;;;12.30;78.80;;;;;;4334036;33;20008;-81
2021/03/26 12:44:01;;;;;;;;;;;12.30;78.60;;;;;;4321957;33;20053;-81
2021/03/26 12:46:50;;;;;;;;;;;12.40;79.10;;;;;;4334012;33;20065;-81
2021/03/26 12:49:31;;;;;;;;;;;12.40;79.00;;;;;;4334111;33;20017;-81
2021/03/26 12:52:18;;;;;;;;;;;12.50;78.40;;;;;;4347380;33;20009;-81
2021/03/26 12:55:12;;;;;;;;;;;12.50;78.10;;;;;;4327826;33;20025;-81
2021/03/26 12:57:53;;;;;;;;;;;12.60;77.70;;;;;;4333953;33;20422;-81
2021/03/26 13:00:36;;;;;;;;;;;12.60;77.50;;;;;;4334367;33;20378;-81
2021/03/26 13:03:16;;;;;;;;;;;12.60;77.00;;;;;;4333672;33;20017;-81
2021/03/26 13:05:56;;;;;;;;;;;12.60;77.10;;;;;;4320540;33;32958;-81
2021/03/26 13:08:31;;;;;;;;;;;12.70;77.60;;;;;;4320850;33;36552;-80
2021/03/26 13:11:15;;;;;;;;;;;12.70;76.50;;;;;;4345696;33;42569;-81
2021/03/26 13:13:54;;;;;;;;;;;12.70;76.20;;;;;;4346122;33;41642;-81
2021/03/26 13:16:36;;;;;;;;;;;12.70;76.30;;;;;;4332674;33;44435;-81
2021/03/26 13:19:16;;;;;;;;;;;12.80;76.20;;;;;;4333285;33;20005;-81
2021/03/26 13:22:04;;;;;;;;;;;12.70;75.60;;;;;;4334532;33;20463;-80
2021/03/26 13:24:50;;;;;;;;;;;12.80;76.80;;;;;;4333444;33;20108;-81
2021/03/26 13:27:29;;;;;;;;;;;12.80;76.20;;;;;;4333834;33;20025;-81
2021/03/26 13:30:06;;;;;;;;;;;12.90;75.80;;;;;;4345589;33;43324;-81
2021/03/26 13:32:41;;;;;;;;;;;12.90;75.60;;;;;;4321004;33;20414;-81
2021/03/26 13:35:35;;;;;;;;;;;12.90;75.60;;;;;;4333139;33;20120;-81
2021/03/26 13:38:25;;;;;;;;;;;12.90;75.30;;;;;;4325588;33;20403;-81
2021/03/26 13:40:55;;;;;;;;;;;13.00;75.50;;;;;;4326287;33;41489;-81
2021/03/26 13:43:31;;;;;;;;;;;13.00;74.50;;;;;;4346699;33;20016;-81
2021/03/26 13:46:07;;;;;;;;;;;12.90;75.20;;;;;;4321141;33;20060;-82
2021/03/26 13:48:50;;;;;;;;;;;13.00;74.30;;;;;;4346653;33;20018;-81
2021/03/26 13:51:22;;;;;;;;;;;12.90;75.00;;;;;;4333038;33;19997;-81
2021/03/26 13:54:20;;;;;;;;;;;13.00;75.00;;;;;;4331964;33;45994;-81
2021/03/26 13:56:55;;;;;;;;;;;12.90;75.50;;;;;;4319771;33;44001;-81
2021/03/26 13:59:36;;;;;;;;;;;13.00;75.50;;;;;;4345710;33;34174;-81
2021/03/26 14:02:14;;;;;;;;;;;13.00;75.70;;;;;;4331896;33;35598;-82
2021/03/26 14:05:04;;;;;;;;;;;13.00;75.10;;;;;;4333239;33;20056;-81
2021/03/26 14:07:35;;;;;;;;;;;13.00;75.50;;;;;;4332489;33;24327;-81
2021/03/26 14:10:17;;;;;;;;;;;13.10;75.30;;;;;;4321098;33;20057;-81
2021/03/26 14:12:58;;;;;;;;;;;13.20;75.60;;;;;;4346593;33;20009;-81
2021/03/26 14:15:33;;;;;;;;;;;13.20;74.90;;;;;;4333022;33;20060;-81
2021/03/26 14:18:13;;;;;;;;;;;13.20;74.40;;;;;;4333258;33;20139;-81
2021/03/26 14:20:47;;;;;;;;;;;13.30;75.00;;;;;;4333094;33;25725;-81
2021/03/26 14:23:28;;;;;;;;;;;13.30;74.50;;;;;;4333196;33;20068;-81
2021/03/26 14:26:12;;;;;;;;;;;13.20;73.50;;;;;;4320829;33;20399;-81
2021/03/26 14:28:51;;;;;;;;;;;13.20;73.70;;;;;;4346510;33;20363;-81
2021/03/26 14:31:30;;;;;;;;;;;13.20;73.30;;;;;;4320968;33;20040;-82
2021/03/26 14:34:21;;;;;;;;;;;13.20;73.80;;;;;;4321036;33;20537;-81
2021/03/26 14:36:55;;;;;;;;;;;13.10;72.60;;;;;;4320506;33;20049;-81
2021/03/26 14:39:37;;;;;;;;;;;13.10;72.80;;;;;;4320979;33;19994;-81
2021/03/26 14:42:26;;;;;;;;;;;13.10;73.00;;;;;;4346315;33;20020;-81
2021/03/26 14:45:01;;;;;;;;;;;13.10;73.10;;;;;;4324243;33;43379;-81
2021/03/26 14:47:37;;;;;;;;;;;13.10;72.60;;;;;;4333006;33;20013;-81
2021/03/26 14:50:12;;;;;;;;;;;13.10;72.60;;;;;;4345856;33;20065;-81
2021/03/26 14:52:53;;;;;;;;;;;13.20;73.10;;;;;;4346529;33;29105;-81
2021/03/26 14:55:35;;;;;;;;;;;13.20;72.90;;;;;;4349066;33;20060;-81
2021/03/26 14:58:18;;;;;;;;;;;13.30;73.10;;;;;;4323245;33;20057;-81
2021/03/26 15:01:06;;;;;;;;;;;13.40;73.00;;;;;;4335507;33;20060;-81
2021/03/26 15:03:52;;;;;;;;;;;13.40;72.90;;;;;;4348736;33;20056;-81
2021/03/26 15:06:35;;;;;;;;;;;13.40;72.30;;;;;;4323689;33;20016;-81
2021/03/26 15:09:16;;;;;;;;;;;13.40;73.00;;;;;;4335136;33;20065;-81
2021/03/26 15:12:06;;;;;;;;;;;13.50;71.40;;;;;;4335899;33;20012;-82
2021/03/26 15:14:43;;;;;;;;;;;13.40;71.50;;;;;;4349084;33;20023;-81
2021/03/26 15:17:31;;;;;;;;;;;13.50;71.70;;;;;;4323126;33;19993;-81
2021/03/26 15:20:08;;;;;;;;;;;13.50;71.00;;;;;;4348410;33;20100;-81
2021/03/26 15:22:47;;;;;;;;;;;13.40;70.40;;;;;;4335170;33;20023;-82
2021/03/26 15:25:27;;;;;;;;;;;13.50;71.20;;;;;;4348414;33;20017;-81
2021/03/26 15:28:31;;;;;;;;;;;13.50;71.00;;;;;;4348407;33;20019;-81
2021/03/26 15:31:14;;;;;;;;;;;13.50;70.60;;;;;;4323187;33;20006;-81
2021/03/26 15:33:46;;;;;;;;;;;13.60;70.20;;;;;;4335198;33;20005;-81
2021/03/26 15:36:39;;;;;;;;;;;13.60;70.10;;;;;;4348396;33;20021;-81
2021/03/26 15:39:30;;;;;;;;;;;13.60;69.90;;;;;;4335339;33;20045;-81
2021/03/26 15:42:28;;;;;;;;;;;13.60;69.90;;;;;;4323522;33;20354;-82
2021/03/26 15:45:11;;;;;;;;;;;13.50;70.20;;;;;;4343191;33;20043;-81
2021/03/26 15:47:50;;;;;;;;;;;13.50;70.40;;;;;;4335331;33;20068;-81
2021/03/26 15:50:34;;;;;;;;;;;13.50;69.10;;;;;;4335548;33;20023;-81
2021/03/26 15:53:19;;;;;;;;;;;13.50;69.60;;;;;;4334365;33;20010;-81